Coxs Mills, WV (26342)

7:17 AM EDT on March 30, 2015 (GMT -0400)
Brooklyn Point | | Change Station
CLOSE
Current Station
Personal Weather Station
Location: Glenville, WV
Elevation: 732 ft
Nearby Weather Stations

Elev 732 ft 38.94 °N, 80.84 °W | Updated 8 minutes ago

Overcast
Overcast
43.5 °F
Feels Like 44 °F
N
1.7
Wind Variable Wind from SSE

Today
High -- | Low -- °F
--% Chance of Precip.
Yesterday
High -- | Low -- °F
Precip. -- in
7:11 AM 7:44 PM
Waxing Gibbous, 79% visible
Pressure 29.92 in
Visibility 2.0 miles
Clouds Scattered Clouds 400 ft
Mostly Cloudy 700 ft
Overcast 2000 ft
Windchill 44 °F
Dew Point 41 °F
Humidity 92%
Rainfall 0.13 in
Snow Depth Not available.
UV 0 out of 12
Pollen 7.40 out of 12
Air Quality Not available.
Flu Activity Not available.
METAR KW22 301055Z AUTO 22010G17KT 2SM -RA SCT004 BKN007 OVC020 04/04 A2992 RMK AO2

More Conditions Fewer Conditions

Pressure 29.92 in
Visibility 2.0 miles
Clouds Scattered Clouds 400 ft
Mostly Cloudy 700 ft
Overcast 2000 ft
Windchill 44 °F
Dew Point 41 °F
Humidity 92%
Rainfall 0.13 in
Snow Depth Not available.
UV 0 out of 12
Pollen 7.40 out of 12
Air Quality Not available.
Flu Activity Not available.
METAR KW22 301055Z AUTO 22010G17KT 2SM -RA SCT004 BKN007 OVC020 04/04 A2992 RMK AO2

More Conditions Fewer Conditions

10-Day Weather Forecast

Almanac

Astronomy

Mar. 30, 2015 Rise Set
Actual Time
Civil Twilight
Nautical Twilight
Astronomical Twilight
Moon
Length of Visible Light
Length of Day
Tomorrow will be .
, % of the Moon is Illuminated

Today's Extremes

State Highs State Lows

Community

WunderPhotos

Upload Photos

1,809,457 photos uploaded!

WunderBlogs® & News

Nearby

Air Quality

  Air Quality AQ Index Pollutant
Not available.

Snow Depth

Station Depth Elevation

Earthquake Activity

City Distance Mag. Time & Date
Minimum magnitude displayed is 2.5.

Coastal Water Temperatures

Place Temperature

Stations

Nearby Weather Stations

Station Location Temp. Windchill Dew Point Humidity Wind Precip. Elev Updated Type